createdAt,value
2022-08-26T00:01:45.049Z,59.09
2022-08-26T00:04:12.755Z,59.35
2022-08-26T00:06:42.649Z,59.40
2022-08-26T00:09:15.928Z,59.76
2022-08-26T00:11:45.349Z,59.86
2022-08-26T00:14:13.680Z,59.96
2022-08-26T00:16:47.995Z,59.77
2022-08-26T00:19:18.368Z,59.36
2022-08-26T00:21:48.750Z,59.15
2022-08-26T00:24:19.367Z,59.63
2022-08-26T00:26:45.966Z,60.06
2022-08-26T00:29:13.120Z,60.03
2022-08-26T00:31:40.701Z,60.21
2022-08-26T00:34:09.433Z,60.40
2022-08-26T00:36:37.190Z,60.51
2022-08-26T00:39:04.714Z,60.48
2022-08-26T00:41:35.810Z,60.72
2022-08-26T00:44:02.629Z,60.99
2022-08-26T00:46:36.661Z,61.29
2022-08-26T00:49:17.915Z,61.41
2022-08-26T00:51:51.443Z,61.24
2022-08-26T00:54:22.834Z,60.98
2022-08-26T00:56:57.674Z,61.20
2022-08-26T00:59:28.812Z,61.73
2022-08-26T01:01:56.769Z,61.31
2022-08-26T01:04:24.694Z,61.48
2022-08-26T01:06:54.667Z,61.88
2022-08-26T01:09:23.063Z,61.78
2022-08-26T01:11:55.184Z,61.36
2022-08-26T01:14:24.286Z,61.67
2022-08-26T01:16:50.820Z,61.80
2022-08-26T01:19:40.330Z,62.49
2022-08-26T01:22:17.089Z,61.98
2022-08-26T01:24:43.719Z,62.04
2022-08-26T01:27:15.595Z,62.22
2022-08-26T01:29:46.295Z,62.27
2022-08-26T01:32:21.506Z,62.17
2022-08-26T01:34:50.107Z,62.32
2022-08-26T01:37:23.447Z,62.33
2022-08-26T01:39:54.416Z,62.29
2022-08-26T01:42:24.586Z,62.32
2022-08-26T01:45:03.575Z,62.04
2022-08-26T01:47:35.414Z,62.04
2022-08-26T01:50:09.159Z,62.52
2022-08-26T01:52:41.304Z,62.68
2022-08-26T01:55:11.508Z,62.88
2022-08-26T01:57:38.115Z,63.01
2022-08-26T02:00:13.155Z,62.58
2022-08-26T02:02:50.186Z,62.52
2022-08-26T02:05:22.024Z,62.76
2022-08-26T02:07:50.638Z,62.89
2022-08-26T02:10:17.176Z,62.76
2022-08-26T02:12:46.394Z,62.85
2022-08-26T02:15:13.199Z,62.59
2022-08-26T02:17:46.784Z,62.92
2022-08-26T02:20:20.610Z,62.83
2022-08-26T02:22:48.439Z,62.58
2022-08-26T02:25:50.213Z,62.80
2022-08-26T02:28:19.774Z,62.44
2022-08-26T02:30:47.655Z,62.74
2022-08-26T02:33:14.335Z,62.57
2022-08-26T02:35:41.277Z,62.60
2022-08-26T02:38:11.247Z,62.52
2022-08-26T02:40:42.099Z,62.61
2022-08-26T02:43:09.602Z,62.32
2022-08-26T02:45:36.967Z,62.25
2022-08-26T02:48:13.307Z,62.12
2022-08-26T02:50:40.982Z,62.39
2022-08-26T02:53:12.099Z,62.39
2022-08-26T02:55:40.835Z,62.58
2022-08-26T02:58:09.702Z,62.65
2022-08-26T03:00:38.409Z,62.72
2022-08-26T03:03:05.851Z,62.87
2022-08-26T03:05:33.070Z,62.51
2022-08-26T03:08:01.627Z,62.78
2022-08-26T03:10:29.283Z,62.96
2022-08-26T03:12:55.831Z,62.79
2022-08-26T03:15:22.815Z,62.89
2022-08-26T03:17:50.241Z,63.06
2022-08-26T03:20:18.098Z,63.27
2022-08-26T03:22:45.926Z,63.63
2022-08-26T03:25:16.550Z,63.28
2022-08-26T03:27:43.802Z,63.38
2022-08-26T03:30:31.261Z,63.20
2022-08-26T03:32:58.272Z,63.79
2022-08-26T03:35:26.191Z,64.13
2022-08-26T03:37:53.518Z,64.38
2022-08-26T03:40:21.462Z,63.96
2022-08-26T03:42:49.750Z,63.52
2022-08-26T03:45:19.319Z,63.53
2022-08-26T03:47:47.843Z,63.88
2022-08-26T03:50:22.647Z,63.79
2022-08-26T03:52:52.443Z,63.69
2022-08-26T03:55:23.765Z,64.12
2022-08-26T03:57:51.010Z,64.18
2022-08-26T04:00:19.347Z,64.15
2022-08-26T04:02:49.186Z,64.42
2022-08-26T04:05:19.606Z,64.26
2022-08-26T04:07:48.533Z,64.19
2022-08-26T04:10:20.268Z,64.16
2022-08-26T04:12:47.207Z,64.46
2022-08-26T04:15:16.601Z,64.26
2022-08-26T04:17:44.974Z,64.55
2022-08-26T04:20:17.991Z,64.83
2022-08-26T04:22:46.070Z,64.65
2022-08-26T04:25:13.630Z,64.61
2022-08-26T04:27:40.323Z,64.64
2022-08-26T04:30:08.975Z,64.42
2022-08-26T04:32:37.258Z,64.52
2022-08-26T04:35:05.397Z,64.53
2022-08-26T04:37:33.453Z,64.35
2022-08-26T04:40:00.140Z,64.21
2022-08-26T04:42:26.907Z,64.57
2022-08-26T04:44:53.409Z,64.35
2022-08-26T04:47:19.926Z,64.19
2022-08-26T04:49:46.488Z,64.54
2022-08-26T04:52:13.046Z,64.71
2022-08-26T04:54:39.589Z,64.87
2022-08-26T04:57:08.734Z,64.95
2022-08-26T04:59:39.192Z,64.59
2022-08-26T05:02:06.953Z,65.15
2022-08-26T05:04:33.936Z,64.97
2022-08-26T05:07:02.997Z,64.87
2022-08-26T05:09:29.638Z,64.83
2022-08-26T05:11:57.354Z,64.41
2022-08-26T05:14:23.943Z,64.26
2022-08-26T05:16:51.503Z,65.11
2022-08-26T05:19:19.518Z,65.19
2022-08-26T05:21:47.666Z,65.14
2022-08-26T05:24:14.647Z,65.33
2022-08-26T05:26:41.699Z,64.99
2022-08-26T05:29:11.563Z,64.83
2022-08-26T05:31:38.374Z,64.39
2022-08-26T05:34:05.800Z,64.22
2022-08-26T05:36:35.563Z,63.90
2022-08-26T05:39:05.359Z,63.76
2022-08-26T05:41:38.285Z,63.94
2022-08-26T05:44:10.675Z,63.60
2022-08-26T05:46:39.780Z,63.78
2022-08-26T05:49:12.223Z,63.60
2022-08-26T05:51:42.146Z,63.73
2022-08-26T05:54:10.204Z,64.18
2022-08-26T05:56:37.895Z,64.01
2022-08-26T05:59:05.824Z,63.77
2022-08-26T06:01:37.535Z,63.53
2022-08-26T06:04:04.162Z,63.19
2022-08-26T06:06:34.726Z,62.97
2022-08-26T06:09:05.485Z,63.14
2022-08-26T06:11:32.892Z,63.00
2022-08-26T06:14:04.350Z,62.78
2022-08-26T06:16:35.035Z,62.94
2022-08-26T06:19:10.487Z,62.86
2022-08-26T06:21:41.534Z,62.64
2022-08-26T06:24:32.369Z,62.36
2022-08-26T06:27:09.438Z,62.46
2022-08-26T06:29:37.589Z,62.25
2022-08-26T06:32:05.337Z,62.33
2022-08-26T06:34:32.616Z,62.57
2022-08-26T06:37:02.693Z,62.69
2022-08-26T06:39:31.389Z,62.78
2022-08-26T06:41:59.914Z,62.59
2022-08-26T06:44:27.577Z,62.17
2022-08-26T06:46:54.818Z,62.25
2022-08-26T06:49:27.362Z,62.46
2022-08-26T06:51:58.240Z,62.20
2022-08-26T06:54:25.883Z,62.18
2022-08-26T06:56:52.383Z,62.10
2022-08-26T06:59:18.892Z,62.96
2022-08-26T07:01:46.426Z,63.27
2022-08-26T07:04:20.192Z,63.41
2022-08-26T07:06:50.247Z,63.70
2022-08-26T07:09:24.389Z,64.08
2022-08-26T07:11:52.858Z,63.94
2022-08-26T07:14:21.556Z,64.15
2022-08-26T07:16:50.535Z,64.64
2022-08-26T07:19:30.087Z,64.80
2022-08-26T07:22:03.957Z,64.76
2022-08-26T07:24:38.314Z,64.79
2022-08-26T07:27:11.379Z,65.87
2022-08-26T07:29:40.259Z,65.91
2022-08-26T07:32:08.016Z,66.11
2022-08-26T07:34:34.717Z,66.00
2022-08-26T07:37:01.629Z,65.71
2022-08-26T07:39:31.617Z,65.33
2022-08-26T07:42:07.896Z,65.54
2022-08-26T07:44:37.247Z,65.13
2022-08-26T07:47:03.895Z,64.76
2022-08-26T07:49:37.952Z,64.50
2022-08-26T07:52:06.053Z,64.65
2022-08-26T07:54:32.914Z,64.58
2022-08-26T07:56:59.619Z,64.53
2022-08-26T07:59:26.130Z,64.64
2022-08-26T08:01:52.859Z,64.45
2022-08-26T08:04:26.034Z,64.38
2022-08-26T08:06:53.462Z,64.12
2022-08-26T08:09:19.982Z,63.68
2022-08-26T08:11:49.645Z,63.58
2022-08-26T08:14:18.199Z,63.40
2022-08-26T08:16:48.852Z,63.16
2022-08-26T08:19:20.130Z,62.98
2022-08-26T08:21:48.402Z,62.57
2022-08-26T08:24:15.680Z,62.45
2022-08-26T08:26:42.319Z,62.04
2022-08-26T08:29:08.960Z,62.11
2022-08-26T08:31:55.995Z,61.98
2022-08-26T08:34:28.876Z,61.84
2022-08-26T08:36:57.255Z,61.76
2022-08-26T08:39:25.393Z,61.66
2022-08-26T08:42:13.843Z,61.55
2022-08-26T08:44:52.537Z,61.37
2022-08-26T08:47:35.810Z,61.41
2022-08-26T08:50:24.552Z,61.34
2022-08-26T08:53:12.861Z,60.80
2022-08-26T08:56:20.520Z,60.86
2022-08-26T08:59:02.898Z,60.63
2022-08-26T09:01:54.231Z,60.58
2022-08-26T09:04:40.789Z,60.40
2022-08-26T09:07:18.381Z,59.89
2022-08-26T09:09:59.054Z,59.66
2022-08-26T09:12:33.443Z,59.43
2022-08-26T09:15:34.998Z,58.87
2022-08-26T09:18:41.375Z,59.19
2022-08-26T09:21:18.038Z,59.12
2022-08-26T09:23:49.260Z,58.94
2022-08-26T09:26:23.511Z,58.59
2022-08-26T09:29:01.286Z,58.74
2022-08-26T09:31:37.687Z,58.65
2022-08-26T09:34:19.616Z,58.89
2022-08-26T09:36:56.234Z,58.77
2022-08-26T09:39:37.650Z,58.51
2022-08-26T09:42:27.534Z,58.10
2022-08-26T09:45:04.377Z,57.91
2022-08-26T09:47:51.892Z,57.86
2022-08-26T09:50:50.538Z,57.75
2022-08-26T09:53:28.561Z,57.24
2022-08-26T09:56:29.416Z,57.23
2022-08-26T09:58:57.253Z,57.13
2022-08-26T10:01:23.753Z,56.72
2022-08-26T10:03:51.370Z,56.65
2022-08-26T10:06:17.883Z,56.65
2022-08-26T10:08:54.281Z,56.69
2022-08-26T10:11:47.206Z,57.27
2022-08-26T10:17:36.942Z,56.98
2022-08-26T10:20:23.133Z,56.25
2022-08-26T10:23:32.282Z,56.32
2022-08-26T10:26:30.596Z,55.91
2022-08-26T10:29:08.881Z,55.67
2022-08-26T10:31:41.031Z,55.94
2022-08-26T10:34:09.742Z,55.30
2022-08-26T10:37:14.355Z,54.84
2022-08-26T10:40:01.514Z,54.62
2022-08-26T10:42:38.655Z,54.61
2022-08-26T10:45:19.682Z,54.38
2022-08-26T10:47:59.969Z,54.53
2022-08-26T10:50:36.028Z,54.63
2022-08-26T10:53:40.004Z,54.39
2022-08-26T10:56:43.342Z,53.95
2022-08-26T10:59:29.440Z,54.33
2022-08-26T11:02:15.849Z,54.05
2022-08-26T11:04:58.730Z,53.89
2022-08-26T11:07:52.553Z,53.64
2022-08-26T11:10:21.321Z,53.01
2022-08-26T11:13:00.371Z,51.77
2022-08-26T11:15:28.050Z,51.52
2022-08-26T11:18:40.935Z,51.07
2022-08-26T11:22:02.390Z,51.38
2022-08-26T11:24:57.345Z,51.60
2022-08-26T11:27:26.653Z,50.51
2022-08-26T11:30:27.908Z,50.78
2022-08-26T11:32:59.346Z,51.08
2022-08-26T11:35:26.148Z,50.86
2022-08-26T11:38:20.078Z,50.40
2022-08-26T11:41:03.288Z,50.64
2022-08-26T11:43:32.522Z,50.58
2022-08-26T11:46:06.207Z,50.64
2022-08-26T11:48:40.110Z,50.86
2022-08-26T11:51:23.353Z,50.94
2022-08-26T11:53:51.032Z,50.69
2022-08-26T11:56:33.904Z,50.76
2022-08-26T11:59:10.456Z,51.21
2022-08-26T12:01:43.797Z,51.19
2022-08-26T12:04:24.953Z,50.80
2022-08-26T12:06:53.401Z,50.94
2022-08-26T12:09:32.822Z,50.45
2022-08-26T12:12:17.389Z,50.74
2022-08-26T12:14:45.060Z,50.00
2022-08-26T12:17:25.683Z,49.79
2022-08-26T12:19:52.248Z,49.91
2022-08-26T12:22:34.523Z,49.83
2022-08-26T12:25:11.651Z,49.61
2022-08-26T12:27:44.185Z,49.42
2022-08-26T12:30:12.445Z,49.23
2022-08-26T12:32:57.231Z,49.35
2022-08-26T12:35:26.706Z,49.40
2022-08-26T12:37:55.129Z,49.17
2022-08-26T12:40:31.003Z,49.13
2022-08-26T12:43:01.758Z,49.43
2022-08-26T12:45:59.731Z,48.81
2022-08-26T12:48:32.708Z,49.42
2022-08-26T12:51:01.041Z,49.02
2022-08-26T12:53:34.795Z,49.17
2022-08-26T12:56:19.446Z,48.97
2022-08-26T12:59:03.689Z,48.75
2022-08-26T13:01:44.341Z,48.97
2022-08-26T13:04:35.804Z,48.81
2022-08-26T13:07:18.427Z,48.77
2022-08-26T13:09:44.948Z,49.05
2022-08-26T13:12:11.556Z,48.88
2022-08-26T13:14:38.366Z,48.48
2022-08-26T13:17:05.035Z,48.52
2022-08-26T13:19:31.563Z,48.92
2022-08-26T13:22:00.596Z,49.09
2022-08-26T13:24:39.683Z,48.92
2022-08-26T13:27:09.154Z,48.70
2022-08-26T13:29:36.264Z,48.74
2022-08-26T13:32:05.290Z,48.70
2022-08-26T13:34:32.463Z,48.68
2022-08-26T13:36:59.602Z,48.81
2022-08-26T13:39:26.838Z,48.63
2022-08-26T13:41:54.299Z,48.92
2022-08-26T13:44:21.648Z,48.87
2022-08-26T13:46:48.449Z,49.07
2022-08-26T13:49:15.174Z,48.87
2022-08-26T13:51:41.929Z,48.78
2022-08-26T13:54:08.981Z,48.57
2022-08-26T13:56:37.325Z,48.38
2022-08-26T13:59:05.655Z,48.38
2022-08-26T14:01:34.146Z,48.37
2022-08-26T14:04:01.053Z,48.25
2022-08-26T14:06:27.575Z,48.71
2022-08-26T14:08:54.552Z,48.39
2022-08-26T14:11:21.385Z,48.51
2022-08-26T14:13:48.009Z,48.45
2022-08-26T14:16:28.884Z,48.09
2022-08-26T14:18:55.427Z,48.66
2022-08-26T14:21:22.174Z,48.52
2022-08-26T14:23:48.759Z,48.02
2022-08-26T14:26:28.890Z,48.27
2022-08-26T14:29:03.710Z,48.61
2022-08-26T14:31:32.884Z,48.50
2022-08-26T14:34:04.804Z,48.50
2022-08-26T14:36:32.938Z,48.49
2022-08-26T14:39:06.067Z,48.11
2022-08-26T14:41:37.034Z,48.39
2022-08-26T14:44:10.493Z,48.49
2022-08-26T14:46:44.806Z,47.94
2022-08-26T14:49:12.002Z,48.06
2022-08-26T14:51:40.739Z,48.15
2022-08-26T14:54:12.514Z,48.35
2022-08-26T14:57:03.711Z,47.99
2022-08-26T14:59:43.327Z,48.17
2022-08-26T15:02:22.270Z,47.79
2022-08-26T15:04:59.731Z,47.99
2022-08-26T15:07:26.245Z,47.86
2022-08-26T15:09:53.013Z,47.63
2022-08-26T15:12:19.523Z,47.80
2022-08-26T15:14:46.049Z,48.23
2022-08-26T15:17:12.918Z,48.40
2022-08-26T15:19:39.511Z,48.27
2022-08-26T15:22:06.015Z,48.40
2022-08-26T15:24:32.541Z,48.45
2022-08-26T15:26:59.081Z,48.52
2022-08-26T15:29:25.713Z,48.46
2022-08-26T15:31:52.568Z,48.51
2022-08-26T15:34:23.734Z,48.37
2022-08-26T15:36:50.291Z,48.54
2022-08-26T15:39:17.804Z,48.62
2022-08-26T15:41:45.285Z,48.33
2022-08-26T15:44:14.163Z,48.65
2022-08-26T15:46:41.912Z,48.78
2022-08-26T15:49:09.455Z,49.02
2022-08-26T15:51:45.309Z,49.39
2022-08-26T15:54:16.472Z,49.65
2022-08-26T15:56:43.633Z,49.64
2022-08-26T15:59:11.422Z,49.52
2022-08-26T16:01:39.293Z,50.12
2022-08-26T16:04:06.372Z,49.99
2022-08-26T16:06:37.354Z,50.14
2022-08-26T16:09:06.083Z,50.23
2022-08-26T16:11:35.819Z,50.21
2022-08-26T16:14:04.849Z,50.08
2022-08-26T16:16:32.154Z,49.80
2022-08-26T16:18:58.849Z,50.17
2022-08-26T16:21:28.523Z,49.92
2022-08-26T16:23:57.508Z,50.01
2022-08-26T16:26:32.796Z,50.01
2022-08-26T16:29:02.466Z,50.14
2022-08-26T16:31:29.318Z,49.83
2022-08-26T16:33:56.382Z,50.00
2022-08-26T16:36:22.958Z,49.78
2022-08-26T16:38:55.164Z,50.07
2022-08-26T16:41:28.471Z,50.39
2022-08-26T16:43:57.094Z,50.33
2022-08-26T16:46:26.158Z,50.42
2022-08-26T16:48:58.122Z,50.74
2022-08-26T16:51:27.794Z,51.04
2022-08-26T16:53:58.588Z,51.27
2022-08-26T16:56:34.077Z,51.53
2022-08-26T16:59:04.012Z,51.55
2022-08-26T17:01:30.656Z,51.82
2022-08-26T17:03:57.237Z,51.65
2022-08-26T17:06:23.855Z,51.78
2022-08-26T17:08:50.400Z,51.52
2022-08-26T17:11:17.112Z,51.79
2022-08-26T17:13:43.685Z,51.85
2022-08-26T17:16:13.117Z,51.68
2022-08-26T17:18:39.752Z,52.15
2022-08-26T17:21:10.950Z,52.09
2022-08-26T17:23:40.895Z,52.23
2022-08-26T17:26:07.994Z,52.19
2022-08-26T17:28:34.950Z,52.12
2022-08-26T17:31:02.566Z,52.60
2022-08-26T17:33:29.547Z,52.56
2022-08-26T17:35:56.844Z,52.68
2022-08-26T17:38:24.007Z,52.56
2022-08-26T17:40:50.874Z,52.46
2022-08-26T17:43:18.495Z,52.79
2022-08-26T17:45:45.524Z,52.68
2022-08-26T17:48:12.567Z,52.61
2022-08-26T17:50:42.678Z,52.79
2022-08-26T17:53:18.486Z,52.80
2022-08-26T17:55:46.527Z,53.37
2022-08-26T17:58:14.806Z,53.27
2022-08-26T18:00:48.811Z,53.21
2022-08-26T18:03:16.300Z,53.10
2022-08-26T18:05:48.744Z,53.13
2022-08-26T18:08:15.287Z,53.36
2022-08-26T18:10:43.716Z,53.87
2022-08-26T18:13:11.237Z,53.90
2022-08-26T18:15:43.411Z,53.79
2022-08-26T18:18:10.155Z,53.94
2022-08-26T18:20:40.175Z,54.06
2022-08-26T18:23:06.956Z,53.91
2022-08-26T18:25:33.845Z,54.28
2022-08-26T18:28:00.573Z,54.30
2022-08-26T18:30:27.105Z,54.64
2022-08-26T18:32:53.642Z,54.50
2022-08-26T18:35:21.406Z,54.76
2022-08-26T18:37:47.943Z,54.84
2022-08-26T18:40:16.059Z,54.92
2022-08-26T18:42:42.700Z,54.89
2022-08-26T18:45:10.317Z,54.75
2022-08-26T18:47:42.968Z,54.85
2022-08-26T18:50:10.999Z,55.26
2022-08-26T18:52:37.902Z,55.48
2022-08-26T18:55:05.039Z,55.25
2022-08-26T18:57:31.612Z,55.42
2022-08-26T18:59:58.156Z,55.37
2022-08-26T19:02:24.768Z,55.37
2022-08-26T19:04:52.180Z,55.23
2022-08-26T19:07:20.408Z,55.72
2022-08-26T19:09:46.924Z,55.90
2022-08-26T19:12:20.367Z,56.15
2022-08-26T19:14:47.152Z,55.88
2022-08-26T19:17:13.979Z,56.06
2022-08-26T19:19:40.609Z,56.71
2022-08-26T19:22:07.623Z,57.10
2022-08-26T19:24:34.599Z,56.96
2022-08-26T19:27:03.482Z,57.12
2022-08-26T19:29:34.584Z,57.14
2022-08-26T19:32:02.860Z,57.19
2022-08-26T19:34:30.155Z,57.26
2022-08-26T19:36:58.276Z,57.15
2022-08-26T19:39:26.477Z,57.23
2022-08-26T19:41:53.349Z,57.44
2022-08-26T19:44:41.178Z,57.80
2022-08-26T19:47:10.941Z,57.98
2022-08-26T19:49:38.418Z,58.11
2022-08-26T19:52:05.970Z,58.29
2022-08-26T19:54:33.575Z,58.46
2022-08-26T19:57:00.371Z,58.38
2022-08-26T19:59:27.011Z,58.66
2022-08-26T20:02:01.063Z,58.65
2022-08-26T20:04:28.936Z,58.99
2022-08-26T20:06:58.722Z,59.20
2022-08-26T20:09:32.525Z,59.51
2022-08-26T20:11:59.554Z,59.63
2022-08-26T20:14:28.270Z,59.33
2022-08-26T20:16:54.877Z,59.22
2022-08-26T20:19:40.147Z,59.17
2022-08-26T20:22:07.615Z,59.12
2022-08-26T20:24:35.010Z,59.16
2022-08-26T20:27:07.318Z,59.03
2022-08-26T20:29:36.859Z,59.03
2022-08-26T20:32:05.992Z,58.82
2022-08-26T20:34:33.518Z,58.79
2022-08-26T20:37:00.287Z,58.56
2022-08-26T20:39:29.755Z,58.68
2022-08-26T20:41:58.292Z,58.86
2022-08-26T20:44:25.407Z,58.98
2022-08-26T20:46:52.072Z,59.05
2022-08-26T20:49:18.885Z,59.33
2022-08-26T20:51:51.323Z,59.51
2022-08-26T20:54:22.173Z,59.52
2022-08-26T20:56:53.613Z,59.75
2022-08-26T20:59:21.107Z,59.84
2022-08-26T21:01:49.124Z,59.90
2022-08-26T21:04:22.353Z,60.20
2022-08-26T21:06:52.911Z,60.35
2022-08-26T21:09:22.182Z,60.32
2022-08-26T21:11:50.379Z,60.34
2022-08-26T21:14:17.762Z,60.30
2022-08-26T21:16:45.978Z,60.19
2022-08-26T21:19:17.454Z,59.98
2022-08-26T21:21:44.465Z,60.03
2022-08-26T21:24:12.103Z,60.40
2022-08-26T21:26:39.200Z,60.29
2022-08-26T21:29:09.467Z,60.43
2022-08-26T21:31:41.001Z,60.74
2022-08-26T21:34:11.586Z,60.56
2022-08-26T21:36:38.167Z,60.68
2022-08-26T21:39:09.297Z,60.97
2022-08-26T21:41:38.047Z,61.05
2022-08-26T21:44:04.570Z,60.98
2022-08-26T21:46:31.685Z,60.65
2022-08-26T21:49:02.296Z,60.50
2022-08-26T21:51:33.238Z,60.97
2022-08-26T21:54:02.045Z,60.90
2022-08-26T21:56:54.264Z,61.11
2022-08-26T21:59:20.843Z,60.94
2022-08-26T22:01:47.846Z,60.81
2022-08-26T22:04:15.949Z,60.90
2022-08-26T22:06:46.429Z,60.89
2022-08-26T22:09:16.916Z,60.89
2022-08-26T22:11:43.899Z,60.94
2022-08-26T22:14:11.994Z,61.07
2022-08-26T22:16:38.691Z,61.16
2022-08-26T22:19:05.643Z,61.10
2022-08-26T22:21:33.911Z,60.96
2022-08-26T22:24:00.547Z,61.34
2022-08-26T22:26:31.954Z,61.07
2022-08-26T22:29:01.287Z,61.33
2022-08-26T22:31:37.259Z,60.95
2022-08-26T22:34:15.044Z,60.84
2022-08-26T22:36:45.460Z,60.97
2022-08-26T22:39:20.039Z,61.39
2022-08-26T22:41:48.760Z,61.41
2022-08-26T22:44:17.365Z,61.28
2022-08-26T22:46:45.089Z,61.51
2022-08-26T22:49:16.913Z,61.55
2022-08-26T22:51:45.151Z,61.62
2022-08-26T22:54:13.201Z,61.76
2022-08-26T22:56:40.147Z,61.95
2022-08-26T22:59:08.633Z,61.75
2022-08-26T23:01:38.933Z,62.17
2022-08-26T23:04:07.801Z,62.68
2022-08-26T23:06:37.733Z,62.70
2022-08-26T23:09:07.057Z,62.37
2022-08-26T23:11:35.333Z,62.41
2022-08-26T23:14:05.068Z,62.33
2022-08-26T23:16:40.682Z,62.34
2022-08-26T23:19:10.190Z,62.06
2022-08-26T23:21:36.841Z,62.23
2022-08-26T23:24:05.677Z,62.26
2022-08-26T23:26:34.151Z,62.71
2022-08-26T23:29:01.598Z,62.79
2022-08-26T23:31:28.346Z,62.55
2022-08-26T23:34:13.269Z,62.90
2022-08-26T23:36:42.117Z,62.88
2022-08-26T23:39:11.007Z,62.82
2022-08-26T23:41:38.279Z,63.17
2022-08-26T23:44:05.848Z,62.98
2022-08-26T23:46:35.215Z,62.78
2022-08-26T23:49:01.957Z,63.06
2022-08-26T23:51:46.950Z,62.75
2022-08-26T23:54:15.546Z,62.80
2022-08-26T23:59:08.910Z,62.82
